createdAt,value
2022-09-02T00:04:33.395Z,1.70
2022-09-02T00:09:41.872Z,2.10
2022-09-02T00:14:51.258Z,2.20
2022-09-02T00:19:59.314Z,2.23
2022-09-02T00:25:06.801Z,2.30
2022-09-02T00:30:15.693Z,1.60
2022-09-02T00:35:24.234Z,2.23
2022-09-02T00:40:32.596Z,1.77
2022-09-02T00:45:40.776Z,2.10
2022-09-02T00:50:49.293Z,1.97
2022-09-02T00:55:58.806Z,1.77
2022-09-02T01:01:08.941Z,1.70
2022-09-02T01:06:17.200Z,1.87
2022-09-02T01:11:27.467Z,1.90
2022-09-02T01:16:38.700Z,2.20
2022-09-02T01:21:50.589Z,2.27
2022-09-02T01:26:59.562Z,1.70
2022-09-02T01:32:08.102Z,1.77
2022-09-02T01:37:16.622Z,2.30
2022-09-02T01:42:25.405Z,2.23
2022-09-02T01:47:33.839Z,2.13
2022-09-02T01:52:42.636Z,1.70
2022-09-02T01:57:50.985Z,2.00
2022-09-02T02:02:59.278Z,1.60
2022-09-02T02:08:08.120Z,1.73
2022-09-02T02:13:20.652Z,2.00
2022-09-02T02:18:30.083Z,1.87
2022-09-02T02:23:38.984Z,2.17
2022-09-02T02:28:48.277Z,2.53
2022-09-02T02:33:56.537Z,2.30
2022-09-02T02:39:05.277Z,1.93
2022-09-02T02:44:14.014Z,2.20
2022-09-02T02:49:23.410Z,1.90
2022-09-02T02:54:35.210Z,2.13
2022-09-02T02:59:42.868Z,2.10
2022-09-02T03:04:53.459Z,1.93
2022-09-02T03:10:03.242Z,1.97
2022-09-02T03:15:12.457Z,1.67
2022-09-02T03:20:21.416Z,1.80
2022-09-02T03:25:35.572Z,1.97
2022-09-02T03:30:42.586Z,1.90
2022-09-02T03:35:50.640Z,2.60
2022-09-02T03:40:59.348Z,1.70
2022-09-02T03:46:09.262Z,2.27
2022-09-02T03:51:17.674Z,2.07
2022-09-02T03:56:25.852Z,2.10
2022-09-02T04:01:34.938Z,1.63
2022-09-02T04:06:44.919Z,1.57
2022-09-02T04:11:53.161Z,1.90
2022-09-02T04:17:02.791Z,2.23
2022-09-02T04:22:11.200Z,2.13
2022-09-02T04:27:19.750Z,1.97
2022-09-02T04:32:28.100Z,1.97
2022-09-02T04:37:36.765Z,2.03
2022-09-02T04:42:47.592Z,2.37
2022-09-02T04:47:55.817Z,2.40
2022-09-02T04:53:04.618Z,2.50
2022-09-02T04:58:13.203Z,3.07
2022-09-02T05:03:21.761Z,2.77
2022-09-02T05:08:30.289Z,2.43
2022-09-02T05:13:42.107Z,3.10
2022-09-02T05:18:50.977Z,2.50
2022-09-02T05:23:59.470Z,2.00
2022-09-02T05:29:10.170Z,2.10
2022-09-02T05:34:18.710Z,2.17
2022-09-02T05:39:27.207Z,2.63
2022-09-02T05:44:39.754Z,2.03
2022-09-02T05:49:48.145Z,1.80
2022-09-02T05:55:00.927Z,1.43
2022-09-02T06:00:25.845Z,1.53
2022-09-02T06:05:37.110Z,1.67
2022-09-02T06:10:45.516Z,1.73
2022-09-02T06:15:53.920Z,1.60
2022-09-02T06:21:02.015Z,1.60
2022-09-02T06:26:11.983Z,1.57
2022-09-02T06:31:22.407Z,1.00
2022-09-02T06:36:31.005Z,1.60
2022-09-02T06:41:39.805Z,1.27
2022-09-02T06:46:54.243Z,1.03
2022-09-02T06:52:00.705Z,1.00
2022-09-02T06:57:09.145Z,1.03
2022-09-02T07:07:26.623Z,1.23
2022-09-02T07:12:37.366Z,1.10
2022-09-02T07:17:49.354Z,0.93
2022-09-02T07:22:58.166Z,0.90
2022-09-02T07:28:06.662Z,1.10
2022-09-02T07:33:17.140Z,0.90
2022-09-02T07:38:25.443Z,0.73
2022-09-02T07:43:33.947Z,0.83
2022-09-02T07:48:42.511Z,0.80
2022-09-02T07:53:51.742Z,0.90
2022-09-02T07:59:00.606Z,0.90
2022-09-02T08:04:09.290Z,0.80
2022-09-02T08:09:19.025Z,0.97
2022-09-02T08:14:29.596Z,1.00
2022-09-02T08:19:38.692Z,0.63
2022-09-02T08:24:46.742Z,0.70
2022-09-02T08:29:55.409Z,0.60
2022-09-02T08:35:06.785Z,0.90
2022-09-02T08:40:18.213Z,0.70
2022-09-02T08:45:31.319Z,0.60
2022-09-02T08:50:40.089Z,0.60
2022-09-02T08:55:53.971Z,0.77
2022-09-02T09:01:06.371Z,0.70
2022-09-02T09:11:40.123Z,0.87
2022-09-02T09:16:52.142Z,0.60
2022-09-02T09:22:02.864Z,0.40
2022-09-02T09:27:13.577Z,0.90
2022-09-02T09:32:25.564Z,0.60
2022-09-02T09:37:37.414Z,0.60
2022-09-02T09:42:49.723Z,1.00
2022-09-02T09:48:00.282Z,0.70
2022-09-02T09:53:12.150Z,0.50
2022-09-02T09:58:21.286Z,0.60
2022-09-02T10:03:32.859Z,0.53
2022-09-02T10:08:39.654Z,0.50
2022-09-02T10:13:48.967Z,0.50
2022-09-02T10:18:59.476Z,0.60
2022-09-02T10:24:10.631Z,0.57
2022-09-02T10:29:24.663Z,0.37
2022-09-02T10:34:36.952Z,0.40
2022-09-02T10:39:48.630Z,0.67
2022-09-02T10:45:00.129Z,0.60
2022-09-02T10:50:11.493Z,0.60
2022-09-02T10:55:24.109Z,0.40
2022-09-02T11:00:33.260Z,0.40
2022-09-02T11:05:46.082Z,0.70
2022-09-02T11:16:26.458Z,0.63
2022-09-02T11:21:38.403Z,0.50
2022-09-02T11:26:49.336Z,0.43
2022-09-02T11:32:01.204Z,1.50
2022-09-02T11:37:17.994Z,0.70
2022-09-02T11:42:28.119Z,0.70
2022-09-02T11:47:40.698Z,0.53
2022-09-02T13:30:20.144Z,0.67
2022-09-02T13:35:32.272Z,0.60
2022-09-02T13:40:43.801Z,0.63
2022-09-02T13:45:52.966Z,0.60
2022-09-02T13:51:03.754Z,0.60
2022-09-02T13:56:14.910Z,0.40
2022-09-02T14:06:44.389Z,0.60
2022-09-02T14:11:57.049Z,0.60
2022-09-02T14:17:09.676Z,0.97
2022-09-02T14:22:39.821Z,0.60
2022-09-02T14:27:50.857Z,0.53
2022-09-02T14:33:03.448Z,0.67
2022-09-02T14:38:12.878Z,0.70
2022-09-02T14:43:21.368Z,1.03
2022-09-02T14:48:30.301Z,0.70
2022-09-02T14:53:38.585Z,0.67
2022-09-02T14:58:50.204Z,0.70
2022-09-02T15:03:59.182Z,0.90
2022-09-02T15:09:08.163Z,0.70
2022-09-02T15:14:20.789Z,0.90
2022-09-02T15:19:33.459Z,0.70
2022-09-02T15:24:43.826Z,0.60
2022-09-02T15:29:55.785Z,0.57
2022-09-02T15:35:07.697Z,0.60
2022-09-02T15:40:18.297Z,0.90
2022-09-02T15:45:28.246Z,0.77
2022-09-02T15:50:40.907Z,0.70
2022-09-02T15:55:50.445Z,0.83
2022-09-02T16:01:01.878Z,0.60
2022-09-02T16:06:11.495Z,0.70
2022-09-02T16:11:19.991Z,0.63
2022-09-02T16:16:31.559Z,0.60
2022-09-02T16:21:41.261Z,0.70
2022-09-02T16:26:54.654Z,0.60
2022-09-02T16:37:14.825Z,0.63
2022-09-02T16:47:28.421Z,0.77
2022-09-02T16:52:38.312Z,0.80
2022-09-02T16:57:47.197Z,0.90
2022-09-02T17:02:56.209Z,0.53
2022-09-02T17:08:05.053Z,0.80
2022-09-02T17:13:15.655Z,0.80
2022-09-02T17:18:25.128Z,0.83
2022-09-02T17:23:33.424Z,1.20
2022-09-02T17:28:44.684Z,0.90
2022-09-02T17:33:54.039Z,0.97
2022-09-02T17:39:05.680Z,1.37
2022-09-02T17:44:16.774Z,1.70
2022-09-02T17:49:27.253Z,1.57
2022-09-02T17:54:36.860Z,1.90
2022-09-02T18:05:05.967Z,2.47
2022-09-02T18:10:15.418Z,2.63
2022-09-02T18:15:24.773Z,2.87
2022-09-02T18:20:36.788Z,2.93
2022-09-02T18:25:49.671Z,2.90
2022-09-02T18:31:01.175Z,2.87
2022-09-02T18:36:14.688Z,2.53
2022-09-02T18:41:26.368Z,2.10
2022-09-02T18:46:37.995Z,2.70
2022-09-02T18:51:47.755Z,2.60
2022-09-02T18:56:59.057Z,2.40
2022-09-02T19:02:11.739Z,2.60
2022-09-02T19:07:24.856Z,2.17
2022-09-02T19:12:37.358Z,2.90
2022-09-02T19:17:49.715Z,3.40
2022-09-02T19:23:07.452Z,4.17
2022-09-02T19:28:25.771Z,3.77
2022-09-02T19:33:41.924Z,4.47
2022-09-02T19:38:54.333Z,2.80
2022-09-02T19:44:07.313Z,2.20
2022-09-02T19:49:17.446Z,2.20
2022-09-02T19:54:26.862Z,1.97
2022-09-02T19:59:36.172Z,1.77
2022-09-02T20:04:48.882Z,2.07
2022-09-02T20:10:01.739Z,1.47
2022-09-02T20:15:12.112Z,1.83
2022-09-02T20:20:27.856Z,1.50
2022-09-02T20:25:46.960Z,1.53
2022-09-02T20:31:00.051Z,1.70
2022-09-02T20:36:18.439Z,1.53
2022-09-02T20:41:30.628Z,1.60
2022-09-02T20:46:43.531Z,1.40
2022-09-02T20:51:54.850Z,1.27
2022-09-02T20:57:09.162Z,1.43
2022-09-02T21:02:22.840Z,1.50
2022-09-02T21:07:35.097Z,1.43
2022-09-02T21:12:48.212Z,1.60
2022-09-02T21:18:01.464Z,1.60
2022-09-02T21:23:12.810Z,1.60
2022-09-02T21:28:28.815Z,1.53
2022-09-02T21:33:42.146Z,1.43
2022-09-02T21:38:51.762Z,1.70
2022-09-02T21:44:03.754Z,1.30
2022-09-02T21:49:15.942Z,1.27
2022-09-02T21:54:27.565Z,1.50
2022-09-02T21:59:39.213Z,1.73
2022-09-02T22:04:55.704Z,1.30
2022-09-02T22:15:30.574Z,1.60
2022-09-02T22:20:39.978Z,1.60
2022-09-02T22:25:48.975Z,1.53
2022-09-02T22:31:00.431Z,1.20
2022-09-02T22:36:12.266Z,1.37
2022-09-02T22:46:41.011Z,1.20
2022-09-02T22:51:53.869Z,1.53
2022-09-02T22:57:04.962Z,1.53
2022-09-02T23:02:15.920Z,1.87
2022-09-02T23:07:25.351Z,1.53
2022-09-02T23:17:51.443Z,1.13
2022-09-02T23:23:05.045Z,1.00
2022-09-02T23:33:30.017Z,1.67
2022-09-02T23:38:42.562Z,1.60
2022-09-02T23:43:50.534Z,1.70
2022-09-02T23:49:03.143Z,1.73
2022-09-02T23:54:14.302Z,1.50
2022-09-02T23:59:25.774Z,1.47
